sensor_id;sensor_type;location;lat;lon;timestamp;P1;durP1;ratioP1;P2;durP2;ratioP2
2408;SDS011;8463;48.094;7.970;2023-11-21T00:02:20;2.87;;;1.23;;
2408;SDS011;8463;48.094;7.970;2023-11-21T00:04:47;3.03;;;1.50;;
2408;SDS011;8463;48.094;7.970;2023-11-21T00:07:13;4.10;;;1.07;;
2408;SDS011;8463;48.094;7.970;2023-11-21T00:09:39;5.77;;;1.37;;
2408;SDS011;8463;48.094;7.970;2023-11-21T00:12:06;3.40;;;1.30;;
2408;SDS011;8463;48.094;7.970;2023-11-21T00:14:35;1.90;;;1.13;;
2408;SDS011;8463;48.094;7.970;2023-11-21T00:17:04;3.03;;;1.10;;
2408;SDS011;8463;48.094;7.970;2023-11-21T00:19:30;3.90;;;1.30;;
2408;SDS011;8463;48.094;7.970;2023-11-21T00:21:56;3.50;;;1.27;;
2408;SDS011;8463;48.094;7.970;2023-11-21T00:24:23;2.23;;;1.20;;
2408;SDS011;8463;48.094;7.970;2023-11-21T00:26:49;5.70;;;1.20;;
2408;SDS011;8463;48.094;7.970;2023-11-21T00:29:15;2.90;;;1.20;;
2408;SDS011;8463;48.094;7.970;2023-11-21T00:31:43;2.53;;;1.47;;
2408;SDS011;8463;48.094;7.970;2023-11-21T00:34:11;1.93;;;1.10;;
2408;SDS011;8463;48.094;7.970;2023-11-21T00:36:37;2.70;;;1.23;;
2408;SDS011;8463;48.094;7.970;2023-11-21T00:39:03;1.60;;;1.47;;
2408;SDS011;8463;48.094;7.970;2023-11-21T00:41:30;1.87;;;0.90;;
2408;SDS011;8463;48.094;7.970;2023-11-21T00:43:56;1.53;;;1.17;;
2408;SDS011;8463;48.094;7.970;2023-11-21T00:46:24;1.70;;;0.93;;
2408;SDS011;8463;48.094;7.970;2023-11-21T00:48:52;2.60;;;1.10;;
2408;SDS011;8463;48.094;7.970;2023-11-21T00:51:19;3.33;;;1.30;;
2408;SDS011;8463;48.094;7.970;2023-11-21T00:53:44;1.43;;;1.07;;
2408;SDS011;8463;48.094;7.970;2023-11-21T00:56:11;1.97;;;1.10;;
2408;SDS011;8463;48.094;7.970;2023-11-21T00:58:37;5.57;;;1.23;;
2408;SDS011;8463;48.094;7.970;2023-11-21T01:01:03;3.83;;;1.00;;
2408;SDS011;8463;48.094;7.970;2023-11-21T01:03:28;4.10;;;1.00;;
2408;SDS011;8463;48.094;7.970;2023-11-21T01:05:54;1.60;;;1.03;;
2408;SDS011;8463;48.094;7.970;2023-11-21T01:08:20;1.50;;;1.17;;
2408;SDS011;8463;48.094;7.970;2023-11-21T01:10:46;1.37;;;0.83;;
2408;SDS011;8463;48.094;7.970;2023-11-21T01:13:12;2.10;;;1.10;;
2408;SDS011;8463;48.094;7.970;2023-11-21T01:15:40;5.20;;;1.40;;
2408;SDS011;8463;48.094;7.970;2023-11-21T01:18:06;5.63;;;1.40;;
2408;SDS011;8463;48.094;7.970;2023-11-21T01:20:33;1.33;;;1.00;;
2408;SDS011;8463;48.094;7.970;2023-11-21T01:23:01;1.13;;;0.90;;
2408;SDS011;8463;48.094;7.970;2023-11-21T01:25:27;5.20;;;1.13;;
2408;SDS011;8463;48.094;7.970;2023-11-21T01:27:53;2.57;;;1.27;;
2408;SDS011;8463;48.094;7.970;2023-11-21T01:30:18;5.30;;;1.30;;
2408;SDS011;8463;48.094;7.970;2023-11-21T01:32:44;1.10;;;1.00;;
2408;SDS011;8463;48.094;7.970;2023-11-21T01:35:10;3.13;;;1.03;;
2408;SDS011;8463;48.094;7.970;2023-11-21T01:37:39;0.80;;;0.57;;
2408;SDS011;8463;48.094;7.970;2023-11-21T01:40:05;4.03;;;0.80;;
2408;SDS011;8463;48.094;7.970;2023-11-21T01:42:35;1.67;;;0.70;;
2408;SDS011;8463;48.094;7.970;2023-11-21T01:45:00;2.60;;;1.10;;
2408;SDS011;8463;48.094;7.970;2023-11-21T01:47:29;2.00;;;0.90;;
2408;SDS011;8463;48.094;7.970;2023-11-21T01:49:59;1.57;;;0.80;;
2408;SDS011;8463;48.094;7.970;2023-11-21T01:52:25;1.10;;;0.80;;
2408;SDS011;8463;48.094;7.970;2023-11-21T01:54:54;1.90;;;0.77;;
2408;SDS011;8463;48.094;7.970;2023-11-21T01:57:20;4.10;;;0.60;;
2408;SDS011;8463;48.094;7.970;2023-11-21T01:59:46;0.97;;;0.53;;
2408;SDS011;8463;48.094;7.970;2023-11-21T02:02:14;2.43;;;1.00;;
2408;SDS011;8463;48.094;7.970;2023-11-21T02:04:41;2.70;;;0.90;;
2408;SDS011;8463;48.094;7.970;2023-11-21T02:07:07;1.67;;;0.50;;
2408;SDS011;8463;48.094;7.970;2023-11-21T02:09:33;1.10;;;0.80;;
2408;SDS011;8463;48.094;7.970;2023-11-21T02:11:59;0.70;;;0.50;;
2408;SDS011;8463;48.094;7.970;2023-11-21T02:14:28;1.90;;;0.50;;
2408;SDS011;8463;48.094;7.970;2023-11-21T02:16:54;1.57;;;0.67;;
2408;SDS011;8463;48.094;7.970;2023-11-21T02:19:21;2.93;;;0.90;;
2408;SDS011;8463;48.094;7.970;2023-11-21T02:21:54;1.23;;;0.60;;
2408;SDS011;8463;48.094;7.970;2023-11-21T02:24:28;1.90;;;0.70;;
2408;SDS011;8463;48.094;7.970;2023-11-21T02:26:53;1.13;;;0.80;;
2408;SDS011;8463;48.094;7.970;2023-11-21T02:29:20;0.97;;;0.60;;
2408;SDS011;8463;48.094;7.970;2023-11-21T02:31:47;1.00;;;0.67;;
2408;SDS011;8463;48.094;7.970;2023-11-21T02:34:16;2.40;;;0.70;;
2408;SDS011;8463;48.094;7.970;2023-11-21T02:36:43;1.60;;;0.60;;
2408;SDS011;8463;48.094;7.970;2023-11-21T02:39:12;1.53;;;1.00;;
2408;SDS011;8463;48.094;7.970;2023-11-21T02:41:38;2.40;;;0.77;;
2408;SDS011;8463;48.094;7.970;2023-11-21T02:44:07;2.30;;;0.80;;
2408;SDS011;8463;48.094;7.970;2023-11-21T02:46:33;1.37;;;0.70;;
2408;SDS011;8463;48.094;7.970;2023-11-21T02:49:00;1.00;;;0.77;;
2408;SDS011;8463;48.094;7.970;2023-11-21T02:51:27;2.00;;;0.70;;
2408;SDS011;8463;48.094;7.970;2023-11-21T02:53:52;2.93;;;1.10;;
2408;SDS011;8463;48.094;7.970;2023-11-21T02:56:18;2.03;;;0.60;;
2408;SDS011;8463;48.094;7.970;2023-11-21T02:58:44;1.17;;;0.70;;
2408;SDS011;8463;48.094;7.970;2023-11-21T03:01:10;0.50;;;0.50;;
2408;SDS011;8463;48.094;7.970;2023-11-21T03:03:36;2.87;;;0.77;;
2408;SDS011;8463;48.094;7.970;2023-11-21T03:06:05;0.70;;;0.67;;
2408;SDS011;8463;48.094;7.970;2023-11-21T03:08:31;2.60;;;0.60;;
2408;SDS011;8463;48.094;7.970;2023-11-21T03:10:57;1.10;;;0.70;;
2408;SDS011;8463;48.094;7.970;2023-11-21T03:13:23;0.83;;;0.60;;
2408;SDS011;8463;48.094;7.970;2023-11-21T03:15:49;4.00;;;1.03;;
2408;SDS011;8463;48.094;7.970;2023-11-21T03:18:15;0.70;;;0.60;;
2408;SDS011;8463;48.094;7.970;2023-11-21T03:20:41;2.83;;;0.90;;
2408;SDS011;8463;48.094;7.970;2023-11-21T03:23:11;0.73;;;0.50;;
2408;SDS011;8463;48.094;7.970;2023-11-21T03:25:37;1.37;;;0.67;;
2408;SDS011;8463;48.094;7.970;2023-11-21T03:28:03;3.27;;;0.70;;
2408;SDS011;8463;48.094;7.970;2023-11-21T03:30:33;1.53;;;0.70;;
2408;SDS011;8463;48.094;7.970;2023-11-21T03:32:59;1.97;;;0.70;;
2408;SDS011;8463;48.094;7.970;2023-11-21T03:35:25;1.20;;;0.60;;
2408;SDS011;8463;48.094;7.970;2023-11-21T03:37:53;0.67;;;0.60;;
2408;SDS011;8463;48.094;7.970;2023-11-21T03:40:19;0.90;;;0.60;;
2408;SDS011;8463;48.094;7.970;2023-11-21T03:42:46;1.73;;;0.80;;
2408;SDS011;8463;48.094;7.970;2023-11-21T03:45:12;1.20;;;0.73;;
2408;SDS011;8463;48.094;7.970;2023-11-21T03:47:38;2.83;;;0.70;;
2408;SDS011;8463;48.094;7.970;2023-11-21T03:50:04;1.87;;;0.57;;
2408;SDS011;8463;48.094;7.970;2023-11-21T03:52:30;0.87;;;0.57;;
2408;SDS011;8463;48.094;7.970;2023-11-21T03:54:56;1.47;;;0.70;;
2408;SDS011;8463;48.094;7.970;2023-11-21T03:57:22;0.70;;;0.60;;
2408;SDS011;8463;48.094;7.970;2023-11-21T03:59:47;6.20;;;0.90;;
2408;SDS011;8463;48.094;7.970;2023-11-21T04:02:13;0.60;;;0.50;;
2408;SDS011;8463;48.094;7.970;2023-11-21T04:04:38;1.00;;;0.87;;
2408;SDS011;8463;48.094;7.970;2023-11-21T04:07:04;2.70;;;0.60;;
2408;SDS011;8463;48.094;7.970;2023-11-21T04:09:30;0.83;;;0.60;;
2408;SDS011;8463;48.094;7.970;2023-11-21T04:11:56;0.80;;;0.60;;
2408;SDS011;8463;48.094;7.970;2023-11-21T04:14:22;1.10;;;0.70;;
2408;SDS011;8463;48.094;7.970;2023-11-21T04:16:48;2.40;;;1.27;;
2408;SDS011;8463;48.094;7.970;2023-11-21T04:19:14;1.43;;;0.80;;
2408;SDS011;8463;48.094;7.970;2023-11-21T04:21:40;0.70;;;0.60;;
2408;SDS011;8463;48.094;7.970;2023-11-21T04:24:06;3.83;;;1.80;;
2408;SDS011;8463;48.094;7.970;2023-11-21T04:26:32;1.17;;;1.07;;
2408;SDS011;8463;48.094;7.970;2023-11-21T04:28:58;1.37;;;0.80;;
2408;SDS011;8463;48.094;7.970;2023-11-21T04:31:24;7.00;;;1.10;;
2408;SDS011;8463;48.094;7.970;2023-11-21T04:33:49;1.97;;;0.70;;
2408;SDS011;8463;48.094;7.970;2023-11-21T04:36:15;1.30;;;0.70;;
2408;SDS011;8463;48.094;7.970;2023-11-21T04:38:41;3.20;;;0.97;;
2408;SDS011;8463;48.094;7.970;2023-11-21T04:41:07;0.77;;;0.70;;
2408;SDS011;8463;48.094;7.970;2023-11-21T04:43:33;4.10;;;1.00;;
2408;SDS011;8463;48.094;7.970;2023-11-21T04:45:58;2.93;;;0.90;;
2408;SDS011;8463;48.094;7.970;2023-11-21T04:48:25;3.57;;;1.20;;
2408;SDS011;8463;48.094;7.970;2023-11-21T04:50:51;1.57;;;1.10;;
2408;SDS011;8463;48.094;7.970;2023-11-21T04:53:19;0.93;;;0.83;;
2408;SDS011;8463;48.094;7.970;2023-11-21T04:55:44;1.17;;;0.80;;
2408;SDS011;8463;48.094;7.970;2023-11-21T04:58:10;1.10;;;0.70;;
2408;SDS011;8463;48.094;7.970;2023-11-21T05:00:37;1.33;;;0.60;;
2408;SDS011;8463;48.094;7.970;2023-11-21T05:03:03;1.27;;;0.70;;
2408;SDS011;8463;48.094;7.970;2023-11-21T05:05:31;2.20;;;0.97;;
2408;SDS011;8463;48.094;7.970;2023-11-21T05:07:57;1.27;;;0.70;;
2408;SDS011;8463;48.094;7.970;2023-11-21T05:10:23;1.40;;;0.80;;
2408;SDS011;8463;48.094;7.970;2023-11-21T05:12:48;2.00;;;0.93;;
2408;SDS011;8463;48.094;7.970;2023-11-21T05:15:17;1.23;;;1.00;;
2408;SDS011;8463;48.094;7.970;2023-11-21T05:17:43;2.10;;;0.80;;
2408;SDS011;8463;48.094;7.970;2023-11-21T05:20:10;1.03;;;0.77;;
2408;SDS011;8463;48.094;7.970;2023-11-21T05:22:37;1.30;;;0.87;;
2408;SDS011;8463;48.094;7.970;2023-11-21T05:25:03;2.47;;;1.27;;
2408;SDS011;8463;48.094;7.970;2023-11-21T05:27:30;1.53;;;0.87;;
2408;SDS011;8463;48.094;7.970;2023-11-21T05:29:56;3.40;;;1.40;;
2408;SDS011;8463;48.094;7.970;2023-11-21T05:32:22;3.57;;;1.90;;
2408;SDS011;8463;48.094;7.970;2023-11-21T05:34:52;2.87;;;1.50;;
2408;SDS011;8463;48.094;7.970;2023-11-21T05:37:17;2.13;;;1.40;;
2408;SDS011;8463;48.094;7.970;2023-11-21T05:39:43;2.90;;;1.30;;
2408;SDS011;8463;48.094;7.970;2023-11-21T05:42:09;1.97;;;1.80;;
2408;SDS011;8463;48.094;7.970;2023-11-21T05:44:36;2.23;;;1.53;;
2408;SDS011;8463;48.094;7.970;2023-11-21T05:47:06;1.93;;;1.67;;
2408;SDS011;8463;48.094;7.970;2023-11-21T05:49:32;1.60;;;1.50;;
2408;SDS011;8463;48.094;7.970;2023-11-21T05:51:59;4.40;;;2.80;;
2408;SDS011;8463;48.094;7.970;2023-11-21T05:54:25;2.70;;;1.90;;
2408;SDS011;8463;48.094;7.970;2023-11-21T05:56:51;3.07;;;2.80;;
2408;SDS011;8463;48.094;7.970;2023-11-21T05:59:17;2.13;;;1.60;;
2408;SDS011;8463;48.094;7.970;2023-11-21T06:01:45;3.20;;;2.30;;
2408;SDS011;8463;48.094;7.970;2023-11-21T06:04:11;3.43;;;1.90;;
2408;SDS011;8463;48.094;7.970;2023-11-21T06:06:38;3.37;;;2.37;;
2408;SDS011;8463;48.094;7.970;2023-11-21T06:09:04;2.40;;;1.90;;
2408;SDS011;8463;48.094;7.970;2023-11-21T06:11:31;5.97;;;2.73;;
2408;SDS011;8463;48.094;7.970;2023-11-21T06:13:57;2.27;;;1.40;;
2408;SDS011;8463;48.094;7.970;2023-11-21T06:16:23;5.93;;;2.27;;
2408;SDS011;8463;48.094;7.970;2023-11-21T06:18:49;2.23;;;2.03;;
2408;SDS011;8463;48.094;7.970;2023-11-21T06:21:17;2.67;;;2.07;;
2408;SDS011;8463;48.094;7.970;2023-11-21T06:23:43;4.33;;;3.17;;
2408;SDS011;8463;48.094;7.970;2023-11-21T06:26:09;5.23;;;3.30;;
2408;SDS011;8463;48.094;7.970;2023-11-21T06:28:34;2.33;;;2.13;;
2408;SDS011;8463;48.094;7.970;2023-11-21T06:31:01;3.23;;;2.40;;
2408;SDS011;8463;48.094;7.970;2023-11-21T06:33:33;2.87;;;2.53;;
2408;SDS011;8463;48.094;7.970;2023-11-21T06:35:59;5.23;;;2.30;;
2408;SDS011;8463;48.094;7.970;2023-11-21T06:38:27;3.53;;;2.80;;
2408;SDS011;8463;48.094;7.970;2023-11-21T06:40:55;5.63;;;2.47;;
2408;SDS011;8463;48.094;7.970;2023-11-21T06:43:23;3.63;;;2.90;;
2408;SDS011;8463;48.094;7.970;2023-11-21T06:45:49;4.60;;;3.67;;
2408;SDS011;8463;48.094;7.970;2023-11-21T06:48:14;3.53;;;3.10;;
2408;SDS011;8463;48.094;7.970;2023-11-21T06:50:40;4.20;;;3.30;;
2408;SDS011;8463;48.094;7.970;2023-11-21T06:53:06;2.50;;;2.30;;
2408;SDS011;8463;48.094;7.970;2023-11-21T06:55:33;7.97;;;4.20;;
2408;SDS011;8463;48.094;7.970;2023-11-21T06:57:59;5.07;;;2.13;;
2408;SDS011;8463;48.094;7.970;2023-11-21T07:00:25;1.67;;;1.10;;
2408;SDS011;8463;48.094;7.970;2023-11-21T07:02:53;1.80;;;1.47;;
2408;SDS011;8463;48.094;7.970;2023-11-21T07:05:20;1.40;;;1.30;;
2408;SDS011;8463;48.094;7.970;2023-11-21T07:07:46;2.33;;;1.60;;
2408;SDS011;8463;48.094;7.970;2023-11-21T07:10:13;1.73;;;1.60;;
2408;SDS011;8463;48.094;7.970;2023-11-21T07:12:39;3.63;;;2.13;;
2408;SDS011;8463;48.094;7.970;2023-11-21T07:15:05;2.37;;;1.77;;
2408;SDS011;8463;48.094;7.970;2023-11-21T07:17:34;2.60;;;2.13;;
2408;SDS011;8463;48.094;7.970;2023-11-21T07:20:00;2.77;;;2.53;;
2408;SDS011;8463;48.094;7.970;2023-11-21T07:22:26;1.00;;;0.93;;
2408;SDS011;8463;48.094;7.970;2023-11-21T07:24:52;0.93;;;0.70;;
2408;SDS011;8463;48.094;7.970;2023-11-21T07:27:18;1.47;;;1.10;;
2408;SDS011;8463;48.094;7.970;2023-11-21T07:29:43;1.33;;;0.90;;
2408;SDS011;8463;48.094;7.970;2023-11-21T07:32:13;1.87;;;1.20;;
2408;SDS011;8463;48.094;7.970;2023-11-21T07:34:39;1.97;;;1.13;;
2408;SDS011;8463;48.094;7.970;2023-11-21T07:37:06;1.27;;;1.07;;
2408;SDS011;8463;48.094;7.970;2023-11-21T07:39:34;2.07;;;0.93;;
2408;SDS011;8463;48.094;7.970;2023-11-21T07:42:01;4.00;;;1.43;;
2408;SDS011;8463;48.094;7.970;2023-11-21T07:44:27;1.70;;;1.60;;
2408;SDS011;8463;48.094;7.970;2023-11-21T07:46:53;1.20;;;1.00;;
2408;SDS011;8463;48.094;7.970;2023-11-21T07:49:22;1.77;;;1.30;;
2408;SDS011;8463;48.094;7.970;2023-11-21T07:51:48;3.13;;;1.40;;
2408;SDS011;8463;48.094;7.970;2023-11-21T07:54:14;1.80;;;1.13;;
2408;SDS011;8463;48.094;7.970;2023-11-21T07:56:40;2.80;;;1.20;;
2408;SDS011;8463;48.094;7.970;2023-11-21T07:59:06;2.83;;;1.97;;
2408;SDS011;8463;48.094;7.970;2023-11-21T08:01:32;2.27;;;1.37;;
2408;SDS011;8463;48.094;7.970;2023-11-21T08:03:58;3.17;;;1.40;;
2408;SDS011;8463;48.094;7.970;2023-11-21T08:06:29;2.33;;;1.83;;
2408;SDS011;8463;48.094;7.970;2023-11-21T08:08:55;2.13;;;1.60;;
2408;SDS011;8463;48.094;7.970;2023-11-21T08:11:22;1.70;;;1.60;;
2408;SDS011;8463;48.094;7.970;2023-11-21T08:13:47;2.10;;;1.73;;
2408;SDS011;8463;48.094;7.970;2023-11-21T08:16:13;2.63;;;1.40;;
2408;SDS011;8463;48.094;7.970;2023-11-21T08:18:39;2.10;;;1.77;;
2408;SDS011;8463;48.094;7.970;2023-11-21T08:21:06;1.63;;;1.53;;
2408;SDS011;8463;48.094;7.970;2023-11-21T08:23:32;1.47;;;1.20;;
2408;SDS011;8463;48.094;7.970;2023-11-21T08:25:59;2.00;;;1.20;;
2408;SDS011;8463;48.094;7.970;2023-11-21T08:28:25;3.90;;;1.53;;
2408;SDS011;8463;48.094;7.970;2023-11-21T08:30:51;1.30;;;1.10;;
2408;SDS011;8463;48.094;7.970;2023-11-21T08:33:19;2.90;;;1.50;;
2408;SDS011;8463;48.094;7.970;2023-11-21T08:35:45;3.00;;;2.30;;
2408;SDS011;8463;48.094;7.970;2023-11-21T08:38:11;2.43;;;1.80;;
2408;SDS011;8463;48.094;7.970;2023-11-21T08:40:37;4.07;;;2.57;;
2408;SDS011;8463;48.094;7.970;2023-11-21T08:43:03;4.07;;;2.90;;
2408;SDS011;8463;48.094;7.970;2023-11-21T08:45:33;3.67;;;2.63;;
2408;SDS011;8463;48.094;7.970;2023-11-21T08:47:59;4.53;;;2.30;;
2408;SDS011;8463;48.094;7.970;2023-11-21T08:50:28;6.23;;;2.60;;
2408;SDS011;8463;48.094;7.970;2023-11-21T08:52:54;3.80;;;2.10;;
2408;SDS011;8463;48.094;7.970;2023-11-21T08:55:21;2.23;;;2.00;;
2408;SDS011;8463;48.094;7.970;2023-11-21T08:57:47;1.80;;;1.70;;
2408;SDS011;8463;48.094;7.970;2023-11-21T09:00:13;4.00;;;1.60;;
2408;SDS011;8463;48.094;7.970;2023-11-21T09:02:41;2.13;;;1.77;;
2408;SDS011;8463;48.094;7.970;2023-11-21T09:05:08;1.57;;;1.47;;
2408;SDS011;8463;48.094;7.970;2023-11-21T09:07:34;1.70;;;1.60;;
2408;SDS011;8463;48.094;7.970;2023-11-21T09:10:00;2.13;;;1.63;;
2408;SDS011;8463;48.094;7.970;2023-11-21T09:12:27;1.90;;;1.77;;
2408;SDS011;8463;48.094;7.970;2023-11-21T09:14:52;7.33;;;2.60;;
2408;SDS011;8463;48.094;7.970;2023-11-21T09:17:18;2.73;;;2.30;;
2408;SDS011;8463;48.094;7.970;2023-11-21T09:19:44;2.13;;;1.83;;
2408;SDS011;8463;48.094;7.970;2023-11-21T09:22:14;2.60;;;1.90;;
2408;SDS011;8463;48.094;7.970;2023-11-21T09:24:40;4.43;;;2.63;;
2408;SDS011;8463;48.094;7.970;2023-11-21T09:27:07;3.30;;;2.20;;
2408;SDS011;8463;48.094;7.970;2023-11-21T09:29:33;2.97;;;2.77;;
2408;SDS011;8463;48.094;7.970;2023-11-21T09:31:58;3.10;;;2.47;;
2408;SDS011;8463;48.094;7.970;2023-11-21T09:34:25;6.37;;;3.13;;
2408;SDS011;8463;48.094;7.970;2023-11-21T09:36:50;5.73;;;3.30;;
2408;SDS011;8463;48.094;7.970;2023-11-21T09:39:16;4.80;;;2.87;;
2408;SDS011;8463;48.094;7.970;2023-11-21T09:41:52;3.23;;;2.77;;
2408;SDS011;8463;48.094;7.970;2023-11-21T09:47:14;1.13;;;1.00;;
2408;SDS011;8463;48.094;7.970;2023-11-21T09:49:41;2.50;;;1.53;;
2408;SDS011;8463;48.094;7.970;2023-11-21T09:52:12;3.83;;;1.20;;
2408;SDS011;8463;48.094;7.970;2023-11-21T09:54:45;4.77;;;2.57;;
2408;SDS011;8463;48.094;7.970;2023-11-21T09:57:12;6.07;;;2.50;;
2408;SDS011;8463;48.094;7.970;2023-11-21T09:59:39;5.80;;;4.47;;
2408;SDS011;8463;48.094;7.970;2023-11-21T10:02:06;2.50;;;2.30;;
2408;SDS011;8463;48.094;7.970;2023-11-21T10:04:35;3.10;;;2.00;;
2408;SDS011;8463;48.094;7.970;2023-11-21T10:07:01;1.93;;;1.83;;
2408;SDS011;8463;48.094;7.970;2023-11-21T10:09:28;5.10;;;3.33;;
2408;SDS011;8463;48.094;7.970;2023-11-21T10:11:54;4.50;;;2.67;;
2408;SDS011;8463;48.094;7.970;2023-11-21T10:14:25;12.60;;;4.97;;
2408;SDS011;8463;48.094;7.970;2023-11-21T10:16:54;9.07;;;4.53;;
2408;SDS011;8463;48.094;7.970;2023-11-21T10:19:21;5.97;;;2.60;;
2408;SDS011;8463;48.094;7.970;2023-11-21T10:21:48;2.97;;;1.43;;
2408;SDS011;8463;48.094;7.970;2023-11-21T10:24:16;4.40;;;2.10;;
2408;SDS011;8463;48.094;7.970;2023-11-21T10:26:43;2.20;;;2.00;;
2408;SDS011;8463;48.094;7.970;2023-11-21T10:29:10;3.93;;;2.30;;
2408;SDS011;8463;48.094;7.970;2023-11-21T10:31:41;4.73;;;2.30;;
2408;SDS011;8463;48.094;7.970;2023-11-21T10:34:14;4.77;;;4.20;;
2408;SDS011;8463;48.094;7.970;2023-11-21T10:36:40;3.27;;;2.30;;
2408;SDS011;8463;48.094;7.970;2023-11-21T10:39:06;2.70;;;2.03;;
2408;SDS011;8463;48.094;7.970;2023-11-21T10:41:38;2.27;;;1.90;;
2408;SDS011;8463;48.094;7.970;2023-11-21T10:44:04;5.23;;;3.00;;
2408;SDS011;8463;48.094;7.970;2023-11-21T10:46:34;2.47;;;2.03;;
2408;SDS011;8463;48.094;7.970;2023-11-21T10:49:00;2.70;;;2.27;;
2408;SDS011;8463;48.094;7.970;2023-11-21T10:51:27;6.20;;;4.57;;
2408;SDS011;8463;48.094;7.970;2023-11-21T10:53:53;3.23;;;2.67;;
2408;SDS011;8463;48.094;7.970;2023-11-21T10:56:19;3.23;;;2.63;;
2408;SDS011;8463;48.094;7.970;2023-11-21T10:58:49;2.60;;;2.40;;
2408;SDS011;8463;48.094;7.970;2023-11-21T11:01:19;2.27;;;2.07;;
2408;SDS011;8463;48.094;7.970;2023-11-21T11:03:46;3.60;;;2.73;;
2408;SDS011;8463;48.094;7.970;2023-11-21T11:06:12;3.60;;;2.60;;
2408;SDS011;8463;48.094;7.970;2023-11-21T11:08:40;7.67;;;2.20;;
2408;SDS011;8463;48.094;7.970;2023-11-21T11:11:06;3.70;;;2.07;;
2408;SDS011;8463;48.094;7.970;2023-11-21T11:13:32;2.67;;;2.30;;
2408;SDS011;8463;48.094;7.970;2023-11-21T11:15:59;3.70;;;1.90;;
2408;SDS011;8463;48.094;7.970;2023-11-21T11:18:26;2.73;;;2.10;;
2408;SDS011;8463;48.094;7.970;2023-11-21T11:20:57;3.00;;;2.10;;
2408;SDS011;8463;48.094;7.970;2023-11-21T11:26:39;3.60;;;2.40;;
2408;SDS011;8463;48.094;7.970;2023-11-21T11:37:31;1.83;;;1.53;;
2408;SDS011;8463;48.094;7.970;2023-11-21T11:39:57;1.40;;;1.30;;
2408;SDS011;8463;48.094;7.970;2023-11-21T11:42:24;3.13;;;2.10;;
2408;SDS011;8463;48.094;7.970;2023-11-21T11:44:52;2.60;;;2.40;;
2408;SDS011;8463;48.094;7.970;2023-11-21T11:55:05;1.50;;;1.40;;
2408;SDS011;8463;48.094;7.970;2023-11-21T11:57:32;2.90;;;1.67;;
2408;SDS011;8463;48.094;7.970;2023-11-21T12:00:09;1.97;;;1.77;;
2408;SDS011;8463;48.094;7.970;2023-11-21T12:02:36;1.43;;;1.30;;
2408;SDS011;8463;48.094;7.970;2023-11-21T12:05:12;1.67;;;1.40;;
2408;SDS011;8463;48.094;7.970;2023-11-21T12:07:53;2.60;;;2.23;;
2408;SDS011;8463;48.094;7.970;2023-11-21T12:10:22;1.50;;;1.40;;
2408;SDS011;8463;48.094;7.970;2023-11-21T12:12:54;2.53;;;1.77;;
2408;SDS011;8463;48.094;7.970;2023-11-21T12:15:22;1.53;;;1.43;;
2408;SDS011;8463;48.094;7.970;2023-11-21T12:17:48;1.77;;;1.67;;
2408;SDS011;8463;48.094;7.970;2023-11-21T12:20:18;2.43;;;1.70;;
2408;SDS011;8463;48.094;7.970;2023-11-21T12:22:46;2.90;;;1.70;;
2408;SDS011;8463;48.094;7.970;2023-11-21T12:25:20;2.80;;;2.60;;
2408;SDS011;8463;48.094;7.970;2023-11-21T12:27:50;6.80;;;4.10;;
2408;SDS011;8463;48.094;7.970;2023-11-21T12:30:17;2.30;;;1.87;;
2408;SDS011;8463;48.094;7.970;2023-11-21T12:32:45;1.83;;;1.40;;
2408;SDS011;8463;48.094;7.970;2023-11-21T12:35:14;1.80;;;1.70;;
2408;SDS011;8463;48.094;7.970;2023-11-21T12:37:40;1.63;;;1.50;;
2408;SDS011;8463;48.094;7.970;2023-11-21T12:40:09;2.13;;;1.77;;
2408;SDS011;8463;48.094;7.970;2023-11-21T12:42:40;1.30;;;1.20;;
2408;SDS011;8463;48.094;7.970;2023-11-21T12:47:46;1.53;;;1.10;;
2408;SDS011;8463;48.094;7.970;2023-11-21T12:50:12;1.60;;;1.00;;
2408;SDS011;8463;48.094;7.970;2023-11-21T12:52:44;1.00;;;0.90;;
2408;SDS011;8463;48.094;7.970;2023-11-21T12:55:14;0.80;;;0.80;;
2408;SDS011;8463;48.094;7.970;2023-11-21T12:57:44;1.17;;;1.07;;
2408;SDS011;8463;48.094;7.970;2023-11-21T13:00:11;0.90;;;0.90;;
2408;SDS011;8463;48.094;7.970;2023-11-21T13:02:49;1.67;;;0.80;;
2408;SDS011;8463;48.094;7.970;2023-11-21T13:05:23;5.53;;;2.97;;
2408;SDS011;8463;48.094;7.970;2023-11-21T13:07:53;2.27;;;2.07;;
2408;SDS011;8463;48.094;7.970;2023-11-21T13:10:21;1.30;;;1.20;;
2408;SDS011;8463;48.094;7.970;2023-11-21T13:12:54;2.87;;;2.03;;
2408;SDS011;8463;48.094;7.970;2023-11-21T13:15:23;1.77;;;1.30;;
2408;SDS011;8463;48.094;7.970;2023-11-21T13:17:52;2.00;;;1.53;;
2408;SDS011;8463;48.094;7.970;2023-11-21T13:20:18;0.90;;;0.90;;
2408;SDS011;8463;48.094;7.970;2023-11-21T13:22:46;1.10;;;1.00;;
2408;SDS011;8463;48.094;7.970;2023-11-21T13:25:13;0.93;;;0.83;;
2408;SDS011;8463;48.094;7.970;2023-11-21T13:27:42;1.63;;;1.10;;
2408;SDS011;8463;48.094;7.970;2023-11-21T13:30:09;1.83;;;1.73;;
2408;SDS011;8463;48.094;7.970;2023-11-21T13:32:35;1.37;;;1.27;;
2408;SDS011;8463;48.094;7.970;2023-11-21T13:35:01;1.33;;;1.23;;
2408;SDS011;8463;48.094;7.970;2023-11-21T13:37:27;1.60;;;1.00;;
2408;SDS011;8463;48.094;7.970;2023-11-21T13:39:53;1.63;;;1.10;;
2408;SDS011;8463;48.094;7.970;2023-11-21T13:42:19;1.00;;;0.93;;
2408;SDS011;8463;48.094;7.970;2023-11-21T13:44:55;1.07;;;0.97;;
2408;SDS011;8463;48.094;7.970;2023-11-21T13:47:22;1.73;;;1.03;;
2408;SDS011;8463;48.094;7.970;2023-11-21T13:49:50;1.37;;;1.20;;
2408;SDS011;8463;48.094;7.970;2023-11-21T13:52:16;1.10;;;1.00;;
2408;SDS011;8463;48.094;7.970;2023-11-21T13:54:44;1.33;;;1.20;;
2408;SDS011;8463;48.094;7.970;2023-11-21T13:57:10;1.80;;;1.53;;
2408;SDS011;8463;48.094;7.970;2023-11-21T13:59:35;2.13;;;1.93;;
2408;SDS011;8463;48.094;7.970;2023-11-21T14:02:01;2.00;;;1.37;;
2408;SDS011;8463;48.094;7.970;2023-11-21T14:04:44;2.00;;;1.80;;
2408;SDS011;8463;48.094;7.970;2023-11-21T14:07:33;1.70;;;1.50;;
2408;SDS011;8463;48.094;7.970;2023-11-21T14:10:02;1.87;;;1.77;;
2408;SDS011;8463;48.094;7.970;2023-11-21T14:12:28;2.63;;;1.90;;
2408;SDS011;8463;48.094;7.970;2023-11-21T14:14:58;1.60;;;1.50;;
2408;SDS011;8463;48.094;7.970;2023-11-21T14:17:25;2.37;;;1.97;;
2408;SDS011;8463;48.094;7.970;2023-11-21T14:19:50;2.37;;;2.00;;
2408;SDS011;8463;48.094;7.970;2023-11-21T14:22:16;3.07;;;2.37;;
2408;SDS011;8463;48.094;7.970;2023-11-21T14:24:42;2.63;;;1.90;;
2408;SDS011;8463;48.094;7.970;2023-11-21T14:27:11;1.80;;;1.70;;
2408;SDS011;8463;48.094;7.970;2023-11-21T14:29:40;2.53;;;2.23;;
2408;SDS011;8463;48.094;7.970;2023-11-21T14:32:09;2.40;;;2.20;;
2408;SDS011;8463;48.094;7.970;2023-11-21T14:34:35;3.50;;;2.00;;
2408;SDS011;8463;48.094;7.970;2023-11-21T14:37:02;4.63;;;2.83;;
2408;SDS011;8463;48.094;7.970;2023-11-21T14:39:30;2.50;;;2.03;;
2408;SDS011;8463;48.094;7.970;2023-11-21T14:42:00;1.97;;;1.83;;
2408;SDS011;8463;48.094;7.970;2023-11-21T14:44:27;2.60;;;2.40;;
2408;SDS011;8463;48.094;7.970;2023-11-21T14:46:57;2.80;;;2.20;;
2408;SDS011;8463;48.094;7.970;2023-11-21T14:49:24;2.83;;;2.53;;
2408;SDS011;8463;48.094;7.970;2023-11-21T14:51:52;3.20;;;2.63;;
2408;SDS011;8463;48.094;7.970;2023-11-21T14:54:29;2.57;;;2.33;;
2408;SDS011;8463;48.094;7.970;2023-11-21T14:57:13;2.83;;;2.53;;
2408;SDS011;8463;48.094;7.970;2023-11-21T14:59:46;4.67;;;3.63;;
2408;SDS011;8463;48.094;7.970;2023-11-21T15:02:17;3.77;;;2.53;;
2408;SDS011;8463;48.094;7.970;2023-11-21T15:04:47;4.17;;;3.77;;
2408;SDS011;8463;48.094;7.970;2023-11-21T15:07:17;4.30;;;3.83;;
2408;SDS011;8463;48.094;7.970;2023-11-21T15:09:43;3.30;;;2.10;;
2408;SDS011;8463;48.094;7.970;2023-11-21T15:12:12;3.70;;;3.40;;
2408;SDS011;8463;48.094;7.970;2023-11-21T15:14:44;3.13;;;2.93;;
2408;SDS011;8463;48.094;7.970;2023-11-21T15:17:17;3.03;;;2.13;;
2408;SDS011;8463;48.094;7.970;2023-11-21T15:19:49;8.07;;;6.73;;
2408;SDS011;8463;48.094;7.970;2023-11-21T15:22:15;7.80;;;5.93;;
2408;SDS011;8463;48.094;7.970;2023-11-21T15:24:41;3.70;;;3.33;;
2408;SDS011;8463;48.094;7.970;2023-11-21T15:27:10;2.00;;;1.70;;
2408;SDS011;8463;48.094;7.970;2023-11-21T15:29:36;4.60;;;4.07;;
2408;SDS011;8463;48.094;7.970;2023-11-21T15:32:03;2.10;;;1.07;;
2408;SDS011;8463;48.094;7.970;2023-11-21T15:34:31;1.63;;;1.50;;
2408;SDS011;8463;48.094;7.970;2023-11-21T15:36:57;1.97;;;1.87;;
2408;SDS011;8463;48.094;7.970;2023-11-21T15:39:23;2.20;;;2.00;;
2408;SDS011;8463;48.094;7.970;2023-11-21T15:41:54;5.60;;;5.10;;